Time;durP1;ratioP1;P1;durP2;ratioP2;P2;SDS_P1;SDS_P2;PMS_P1;PMS_P2;Temp;Humidity;BMP_temperature;BMP_pressure;BME280_temperature;BME280_humidity;BME280_pressure;Samples;Min_cycle;Max_cycle;Signal;HPM_P1;HPM_P2
2023/03/08 00:00:35;;;;;;;;;;;;;;;14.10;43.10;101943.41;4753314;30;20069;-49
2023/03/08 00:03:01;;;;;;;;;;;;;;;13.89;44.16;101955.13;4752058;30;19922;-51
2023/03/08 00:05:27;;;;;;;;;;;;;;;13.66;44.77;101949.22;4752884;30;19942;-51
2023/03/08 00:07:53;;;;;;;;;;;;;;;13.52;44.88;101953.69;4753222;30;19918;-51
2023/03/08 00:10:19;;;;;;;;;;;;;;;13.25;46.46;101941.91;4770430;30;19918;-47
2023/03/08 00:12:46;;;;;;;;;;;;;;;13.19;47.67;101942.69;4770576;30;20380;-48
2023/03/08 00:15:11;;;;;;;;;;;;;;;13.13;47.16;101932.72;4761232;30;19926;-49
2023/03/08 00:17:38;;;;;;;;;;;;;;;13.06;46.49;101940.72;4753194;30;19922;-50
2023/03/08 00:20:05;;;;;;;;;;;;;;;12.86;46.71;101937.88;4753269;30;20399;-49
2023/03/08 00:22:40;;;;;;;;;;;;;;;12.88;46.74;101935.84;4753194;30;20464;-51
2023/03/08 00:25:07;;;;;;;;;;;;;;;12.83;46.55;101930.22;4754173;30;19925;-51
2023/03/08 00:27:34;;;;;;;;;;;;;;;12.80;46.31;101921.72;4770697;30;19921;-50
2023/03/08 00:30:00;;;;;;;;;;;;;;;12.83;48.17;101926.72;4770510;30;19918;-49
2023/03/08 00:32:26;;;;;;;;;;;;;;;12.67;49.43;101917.91;4770610;30;20331;-48
2023/03/08 00:34:53;;;;;;;;;;;;;;;12.63;49.42;101916.59;4770418;30;19975;-51
2023/03/08 00:37:19;;;;;;;;;;;;;;;12.74;47.80;101915.25;4770320;30;19981;-50
2023/03/08 00:39:49;;;;;;;;;;;;;;;12.93;48.58;101906.50;4770399;30;19956;-51
2023/03/08 00:42:15;;;;;;;;;;;;;;;12.93;48.46;101903.00;4770516;30;19979;-51
2023/03/08 00:44:41;;;;;;;;;;;;;;;13.11;48.77;101910.59;4770496;30;20130;-51
2023/03/08 00:47:06;;;;;;;;;;;;;;;13.09;47.91;101896.50;4770524;30;19975;-51
2023/03/08 00:49:32;;;;;;;;;;;;;;;13.21;49.02;101892.25;4769871;30;19921;-49
2023/03/08 00:51:58;;;;;;;;;;;;;;;13.01;48.11;101896.66;4769485;30;19975;-47
2023/03/08 00:54:24;;;;;;;;;;;;;;;12.79;48.38;101898.56;4770180;30;19924;-50
2023/03/08 00:56:50;;;;;;;;;;;;;;;12.88;48.61;101897.38;4770273;30;19917;-50
2023/03/08 00:59:16;;;;;;;;;;;;;;;12.90;47.72;101893.47;4769512;30;19940;-51
2023/03/08 01:01:41;;;;;;;;;;;;;;;12.63;48.69;101888.91;4770081;30;20301;-52
2023/03/08 01:04:07;;;;;;;;;;;;;;;12.47;48.53;101899.94;4770106;30;19933;-51
2023/03/08 01:06:33;;;;;;;;;;;;;;;12.43;49.22;101888.72;4770385;30;19949;-49
2023/03/08 01:08:59;;;;;;;;;;;;;;;12.19;50.07;101881.91;4769736;30;20411;-52
2023/03/08 01:11:26;;;;;;;;;;;;;;;12.14;50.62;101885.16;4770018;30;19918;-49
2023/03/08 01:13:52;;;;;;;;;;;;;;;12.06;50.99;101887.16;4769528;30;19932;-51
2023/03/08 01:16:23;;;;;;;;;;;;;;;12.03;51.25;101882.97;4769618;30;20273;-51
2023/03/08 01:18:49;;;;;;;;;;;;;;;11.98;51.64;101880.03;4769712;30;19975;-51
2023/03/08 01:21:15;;;;;;;;;;;;;;;11.86;52.43;101885.06;4770165;30;20338;-52
2023/03/08 01:23:40;;;;;;;;;;;;;;;11.99;52.30;101884.38;4769955;30;20342;-51
2023/03/08 01:26:08;;;;;;;;;;;;;;;11.94;51.85;101877.91;4769907;30;19948;-49
2023/03/08 01:28:34;;;;;;;;;;;;;;;11.77;51.63;101875.44;4769658;30;19914;-52
2023/03/08 01:31:01;;;;;;;;;;;;;;;11.81;52.06;101879.44;4769849;30;19917;-51
2023/03/08 01:33:27;;;;;;;;;;;;;;;11.61;52.25;101879.16;4769489;30;20436;-49
2023/03/08 01:35:53;;;;;;;;;;;;;;;11.61;52.57;101881.03;4769693;30;19924;-48
2023/03/08 01:38:19;;;;;;;;;;;;;;;11.51;53.60;101888.53;4769576;30;19957;-48
2023/03/08 01:40:44;;;;;;;;;;;;;;;11.50;53.33;101885.00;4759960;30;19957;-52
2023/03/08 01:43:30;;;;;;;;;;;;;;;11.43;53.87;101883.25;4769385;30;20015;-50
2023/03/08 01:46:11;;;;;;;;;;;;;;;11.37;53.85;101882.13;4758507;30;20021;-47
2023/03/08 01:48:48;;;;;;;;;;;;;;;11.17;54.72;101876.53;4765798;30;19978;-48
2023/03/08 01:51:16;;;;;;;;;;;;;;;11.24;54.26;101880.13;4759257;30;19956;-49
2023/03/08 01:53:42;;;;;;;;;;;;;;;11.10;55.07;101880.94;4750854;30;20013;-51
2023/03/08 01:56:09;;;;;;;;;;;;;;;11.05;54.95;101873.47;4755713;30;20012;-48
2023/03/08 01:58:35;;;;;;;;;;;;;;;11.02;55.20;101873.00;4752934;30;19922;-49
2023/03/08 02:01:01;;;;;;;;;;;;;;;10.97;54.72;101870.03;4771644;24;20009;-49
2023/03/08 02:03:26;;;;;;;;;;;;;;;10.93;55.28;101874.09;4769577;30;20181;-50
2023/03/08 02:05:52;;;;;;;;;;;;;;;10.93;54.58;101880.28;4769259;30;19922;-49
2023/03/08 02:08:18;;;;;;;;;;;;;;;10.86;55.09;101875.84;4768956;30;19926;-48
2023/03/08 02:10:44;;;;;;;;;;;;;;;10.81;54.89;101873.69;4757949;30;19979;-47
2023/03/08 02:13:10;;;;;;;;;;;;;;;10.70;55.71;101874.97;4750598;30;19922;-49
2023/03/08 02:15:36;;;;;;;;;;;;;;;10.73;55.61;101879.97;4767820;30;19922;-48
2023/03/08 02:18:02;;;;;;;;;;;;;;;10.78;55.36;101877.59;4758689;30;19929;-50
2023/03/08 02:20:32;;;;;;;;;;;;;;;10.69;55.68;101873.31;4755606;30;20154;-48
2023/03/08 02:23:07;;;;;;;;;;;;;;;10.56;55.98;101873.09;4757619;30;19929;-50
2023/03/08 02:25:33;;;;;;;;;;;;;;;10.73;55.41;101877.31;4754005;30;19922;-49
2023/03/08 02:27:59;;;;;;;;;;;;;;;10.74;56.14;101878.13;4752921;30;20274;-50
2023/03/08 02:30:29;;;;;;;;;;;;;;;10.63;55.55;101875.88;4750699;30;20377;-50
2023/03/08 02:32:55;;;;;;;;;;;;;;;10.53;56.36;101874.28;4751380;30;19918;-50
2023/03/08 02:35:20;;;;;;;;;;;;;;;10.53;55.86;101876.13;4751230;30;20025;-49
2023/03/08 02:37:46;;;;;;;;;;;;;;;10.52;55.29;101882.50;4750951;30;20482;-50
2023/03/08 02:40:12;;;;;;;;;;;;;;;10.49;54.69;101880.16;4751199;30;20020;-51
2023/03/08 02:42:38;;;;;;;;;;;;;;;10.34;54.87;101871.28;4763573;30;20313;-50
2023/03/08 02:45:04;;;;;;;;;;;;;;;10.48;54.31;101881.19;4766946;30;19929;-50
2023/03/08 02:47:30;;;;;;;;;;;;;;;10.37;54.22;101877.09;4762860;30;20012;-50
2023/03/08 02:49:56;;;;;;;;;;;;;;;10.36;54.32;101871.94;4768583;30;20346;-50
2023/03/08 02:52:22;;;;;;;;;;;;;;;10.37;54.45;101870.91;4755287;30;20428;-51
2023/03/08 02:54:48;;;;;;;;;;;;;;;10.25;54.58;101876.69;4768679;30;19917;-52
2023/03/08 02:57:14;;;;;;;;;;;;;;;10.19;55.50;101877.38;4768866;30;20007;-50
2023/03/08 02:59:39;;;;;;;;;;;;;;;10.18;55.27;101878.38;4768103;30;19969;-49
2023/03/08 03:02:05;;;;;;;;;;;;;;;10.19;55.68;101874.69;4769129;30;19918;-48
2023/03/08 03:04:32;;;;;;;;;;;;;;;10.02;55.79;101867.78;4771691;30;19924;-51
2023/03/08 03:06:58;;;;;;;;;;;;;;;10.13;55.60;101867.38;4771211;30;19922;-48
2023/03/08 03:09:24;;;;;;;;;;;;;;;10.03;56.24;101869.44;4786628;30;19944;-48
2023/03/08 03:11:50;;;;;;;;;;;;;;;10.13;56.13;101871.91;4786648;30;20380;-49
2023/03/08 03:14:16;;;;;;;;;;;;;;;10.10;56.28;101873.06;4781108;30;20366;-49
2023/03/08 03:16:42;;;;;;;;;;;;;;;10.05;56.70;101862.94;4766218;30;20358;-48
2023/03/08 03:19:08;;;;;;;;;;;;;;;10.08;57.08;101863.56;4771902;30;19925;-50
2023/03/08 03:21:34;;;;;;;;;;;;;;;10.05;57.81;101865.59;4773124;30;19952;-49
2023/03/08 03:24:00;;;;;;;;;;;;;;;9.93;58.31;101871.50;4759439;30;19973;-51
2023/03/08 03:26:26;;;;;;;;;;;;;;;9.84;58.50;101867.25;4781298;30;19928;-52
2023/03/08 03:28:54;;;;;;;;;;;;;;;9.89;58.50;101864.88;4783539;30;19928;-51
2023/03/08 03:31:21;;;;;;;;;;;;;;;9.85;58.82;101859.03;4789747;30;20287;-50
2023/03/08 03:33:48;;;;;;;;;;;;;;;9.96;58.51;101861.31;4776092;30;19918;-52
2023/03/08 03:36:15;;;;;;;;;;;;;;;9.94;58.53;101863.34;4771738;30;19925;-50
2023/03/08 03:38:41;;;;;;;;;;;;;;;9.92;58.86;101869.84;4769555;30;19926;-51
2023/03/08 03:41:09;;;;;;;;;;;;;;;9.85;59.19;101871.56;4768763;30;19921;-51
2023/03/08 03:43:35;;;;;;;;;;;;;;;9.89;58.99;101865.69;4770485;30;19922;-51
2023/03/08 03:46:03;;;;;;;;;;;;;;;9.91;59.37;101873.53;4771572;30;19928;-51
2023/03/08 03:48:29;;;;;;;;;;;;;;;9.85;59.61;101868.91;4769762;30;19921;-51
2023/03/08 03:51:00;;;;;;;;;;;;;;;9.63;59.98;101873.19;4769780;30;19929;-48
2023/03/08 03:53:29;;;;;;;;;;;;;;;9.81;59.56;101875.59;4765727;30;19922;-51
2023/03/08 03:55:55;;;;;;;;;;;;;;;9.90;59.08;101869.22;4771259;30;19921;-52
2023/03/08 03:58:21;;;;;;;;;;;;;;;9.86;58.81;101866.03;4770097;30;20412;-49
2023/03/08 04:00:47;;;;;;;;;;;;;;;9.99;58.41;101869.00;4771064;30;20000;-48
2023/03/08 04:03:13;;;;;;;;;;;;;;;9.98;58.76;101869.97;4770092;30;19929;-51
2023/03/08 04:05:38;;;;;;;;;;;;;;;9.87;59.45;101869.53;4771390;30;19918;-51
2023/03/08 04:08:06;;;;;;;;;;;;;;;9.96;59.44;101868.50;4769902;30;19930;-51
2023/03/08 04:10:32;;;;;;;;;;;;;;;10.03;59.42;101861.44;4768966;30;20278;-51
2023/03/08 04:12:57;;;;;;;;;;;;;;;9.93;59.51;101856.28;4769881;30;19928;-52
2023/03/08 04:15:23;;;;;;;;;;;;;;;9.89;59.79;101859.53;4759835;30;19918;-52
2023/03/08 04:17:50;;;;;;;;;;;;;;;9.94;59.95;101851.81;4753861;30;19925;-50
2023/03/08 04:20:16;;;;;;;;;;;;;;;9.79;60.18;101855.22;4769852;30;20357;-51
2023/03/08 04:22:42;;;;;;;;;;;;;;;9.86;60.53;101854.50;4768858;30;20437;-50
2023/03/08 04:25:08;;;;;;;;;;;;;;;9.90;60.74;101851.31;4767331;30;20012;-51
2023/03/08 04:27:34;;;;;;;;;;;;;;;9.84;61.05;101856.53;4768438;30;20032;-51
2023/03/08 04:30:00;;;;;;;;;;;;;;;9.93;61.36;101855.47;4770661;30;19968;-52
2023/03/08 04:32:25;;;;;;;;;;;;;;;9.71;61.95;101855.25;4767957;30;20020;-48
2023/03/08 04:34:51;;;;;;;;;;;;;;;9.71;62.32;101852.59;4769811;30;19965;-52
2023/03/08 04:37:17;;;;;;;;;;;;;;;9.73;62.13;101855.09;4768419;30;19922;-50
2023/03/08 04:39:43;;;;;;;;;;;;;;;9.73;62.12;101855.94;4769291;30;20305;-52
2023/03/08 04:42:09;;;;;;;;;;;;;;;9.76;61.93;101855.56;4769458;30;20375;-52
2023/03/08 04:44:35;;;;;;;;;;;;;;;9.83;61.75;101855.72;4769430;30;19951;-51
2023/03/08 04:47:00;;;;;;;;;;;;;;;9.72;61.90;101854.28;4769289;30;19922;-48
2023/03/08 04:49:26;;;;;;;;;;;;;;;9.69;62.21;101854.59;4767801;30;19922;-51
2023/03/08 04:51:52;;;;;;;;;;;;;;;9.74;61.92;101851.41;4767083;30;19930;-52
2023/03/08 04:54:18;;;;;;;;;;;;;;;9.71;62.01;101860.59;4769027;30;19968;-50
2023/03/08 04:56:44;;;;;;;;;;;;;;;9.53;62.83;101860.03;4768310;30;19965;-50
2023/03/08 04:59:10;;;;;;;;;;;;;;;9.59;62.00;101854.00;4756807;30;20010;-49
2023/03/08 05:01:36;;;;;;;;;;;;;;;9.51;62.16;101862.88;4752324;30;20009;-48
2023/03/08 05:04:01;;;;;;;;;;;;;;;9.67;61.85;101861.97;4757093;30;19938;-48
2023/03/08 05:06:27;;;;;;;;;;;;;;;9.56;61.80;101858.88;4758184;30;19922;-50
2023/03/08 05:08:53;;;;;;;;;;;;;;;9.62;61.37;101856.31;4769984;30;19965;-51
2023/03/08 05:11:21;;;;;;;;;;;;;;;9.57;61.55;101861.34;4769309;30;19921;-51
2023/03/08 05:13:47;;;;;;;;;;;;;;;9.31;62.19;101866.13;4768893;30;19925;-51
2023/03/08 05:16:12;;;;;;;;;;;;;;;9.32;62.31;101868.63;4769277;30;19921;-51
2023/03/08 05:18:38;;;;;;;;;;;;;;;9.46;62.04;101859.06;4768807;30;20292;-50
2023/03/08 05:21:06;;;;;;;;;;;;;;;9.50;62.13;101865.75;4768685;30;20409;-51
2023/03/08 05:23:32;;;;;;;;;;;;;;;9.47;62.15;101866.06;4769070;30;19928;-51
2023/03/08 05:25:59;;;;;;;;;;;;;;;9.49;62.42;101864.06;4769286;30;19948;-49
2023/03/08 05:28:26;;;;;;;;;;;;;;;9.59;62.01;101862.00;4768517;30;20350;-51
2023/03/08 05:31:09;;;;;;;;;;;;;;;9.46;62.41;101861.75;4769874;30;19924;-50
2023/03/08 05:33:36;;;;;;;;;;;;;;;9.49;62.18;101858.72;4764510;30;20001;-51
2023/03/08 05:36:02;;;;;;;;;;;;;;;9.35;62.58;101856.78;4769742;30;19960;-52
2023/03/08 05:38:28;;;;;;;;;;;;;;;9.31;62.53;101852.78;4768161;30;19929;-51
2023/03/08 05:40:54;;;;;;;;;;;;;;;9.37;62.25;101850.25;4769559;30;19921;-51
2023/03/08 05:43:21;;;;;;;;;;;;;;;9.21;62.73;101861.81;4768446;30;20309;-51
2023/03/08 05:46:01;;;;;;;;;;;;;;;9.20;62.44;101862.81;4769472;30;19999;-51
2023/03/08 05:48:27;;;;;;;;;;;;;;;9.25;62.86;101852.47;4767971;30;19965;-52
2023/03/08 05:50:52;;;;;;;;;;;;;;;9.31;62.71;101858.13;4766007;30;19929;-50
2023/03/08 05:53:19;;;;;;;;;;;;;;;9.24;62.53;101853.47;4764659;30;19922;-50
2023/03/08 05:55:44;;;;;;;;;;;;;;;9.17;62.72;101855.16;4768522;30;19921;-51
2023/03/08 05:58:10;;;;;;;;;;;;;;;9.29;62.72;101860.16;4768229;30;19928;-51
2023/03/08 06:00:36;;;;;;;;;;;;;;;9.17;62.96;101863.19;4768294;30;20022;-52
2023/03/08 06:03:04;;;;;;;;;;;;;;;9.23;63.21;101857.16;4768385;30;19965;-51
2023/03/08 06:05:31;;;;;;;;;;;;;;;9.18;63.11;101861.34;4768085;30;20014;-51
2023/03/08 06:07:57;;;;;;;;;;;;;;;9.07;63.49;101859.88;4769302;30;19922;-52
2023/03/08 06:10:24;;;;;;;;;;;;;;;9.19;63.56;101847.81;4768380;30;19925;-51
2023/03/08 06:12:49;;;;;;;;;;;;;;;8.96;64.16;101858.41;4767430;30;19956;-51
2023/03/08 06:15:15;;;;;;;;;;;;;;;9.14;63.88;101839.47;4769183;30;20010;-52
2023/03/08 06:17:41;;;;;;;;;;;;;;;9.16;63.95;101849.97;4768352;30;19926;-51
2023/03/08 06:20:08;;;;;;;;;;;;;;;9.18;63.65;101854.16;4768133;30;20383;-51
2023/03/08 06:22:34;;;;;;;;;;;;;;;9.30;63.08;101845.78;4767930;30;20024;-50
2023/03/08 06:25:00;;;;;;;;;;;;;;;9.13;63.45;101845.00;4769304;30;19917;-52
2023/03/08 06:27:26;;;;;;;;;;;;;;;9.10;63.20;101858.69;4768272;30;19967;-51
2023/03/08 06:29:52;;;;;;;;;;;;;;;9.00;63.57;101848.22;4768906;30;19926;-52
2023/03/08 06:32:18;;;;;;;;;;;;;;;9.03;63.87;101850.53;4768122;30;20297;-51
2023/03/08 06:34:45;;;;;;;;;;;;;;;9.07;64.03;101841.19;4767948;30;19924;-51
2023/03/08 06:37:11;;;;;;;;;;;;;;;9.16;63.88;101844.63;4768043;30;19979;-48
2023/03/08 06:39:37;;;;;;;;;;;;;;;9.15;64.29;101840.31;4766671;30;19930;-48
2023/03/08 06:42:03;;;;;;;;;;;;;;;9.15;63.99;101841.13;4767872;30;19929;-49
2023/03/08 06:44:29;;;;;;;;;;;;;;;9.08;64.41;101842.84;4767225;30;20085;-51
2023/03/08 06:46:55;;;;;;;;;;;;;;;9.21;63.91;101839.63;4753143;30;20262;-48
2023/03/08 06:49:21;;;;;;;;;;;;;;;8.81;65.04;101829.88;4767663;30;19971;-52
2023/03/08 06:51:47;;;;;;;;;;;;;;;8.78;65.74;101828.41;4781187;30;20260;-50
2023/03/08 06:54:16;;;;;;;;;;;;;;;8.72;65.56;101824.59;4769909;30;19925;-51
2023/03/08 06:56:45;;;;;;;;;;;;;;;8.55;66.35;101830.94;4772174;30;19924;-51
2023/03/08 06:59:12;;;;;;;;;;;;;;;8.62;66.24;101821.25;4771125;30;19926;-51
2023/03/08 07:01:38;;;;;;;;;;;;;;;8.71;65.77;101822.88;4772298;30;20331;-51
2023/03/08 07:04:04;;;;;;;;;;;;;;;8.81;65.84;101820.03;4770317;30;20020;-52
2023/03/08 07:06:30;;;;;;;;;;;;;;;8.63;66.50;101816.75;4770399;30;20400;-51
2023/03/08 07:08:56;;;;;;;;;;;;;;;8.74;66.13;101816.41;4772077;30;19918;-51
2023/03/08 07:11:22;;;;;;;;;;;;;;;8.72;66.11;101819.25;4768450;30;19924;-48
2023/03/08 07:13:48;;;;;;;;;;;;;;;8.69;66.47;101816.06;4771903;30;19965;-51
2023/03/08 07:16:14;;;;;;;;;;;;;;;8.64;66.92;101813.91;4770931;30;19926;-49
2023/03/08 07:18:40;;;;;;;;;;;;;;;8.58;67.12;101817.25;4770468;30;19926;-51
2023/03/08 07:21:06;;;;;;;;;;;;;;;8.67;67.26;101818.09;4771309;30;19921;-51
2023/03/08 07:23:32;;;;;;;;;;;;;;;8.67;67.29;101815.41;4770861;30;20355;-52
2023/03/08 07:25:58;;;;;;;;;;;;;;;8.62;67.23;101807.09;4770971;30;19929;-52
2023/03/08 07:28:24;;;;;;;;;;;;;;;8.49;67.73;101812.09;4771693;30;19918;-51
2023/03/08 07:30:51;;;;;;;;;;;;;;;8.61;67.13;101805.44;4770845;30;19932;-51
2023/03/08 07:33:17;;;;;;;;;;;;;;;8.60;67.06;101811.75;4771949;30;19917;-50
2023/03/08 07:35:43;;;;;;;;;;;;;;;8.59;66.37;101815.41;4769551;30;19925;-50
2023/03/08 07:38:11;;;;;;;;;;;;;;;8.67;66.59;101808.25;4771572;30;19924;-48
2023/03/08 07:40:37;;;;;;;;;;;;;;;8.66;65.96;101809.25;4770513;30;19971;-51
2023/03/08 07:43:02;;;;;;;;;;;;;;;8.68;66.69;101809.91;4771767;30;19917;-51
2023/03/08 07:45:28;;;;;;;;;;;;;;;8.75;65.78;101802.03;4770680;30;20012;-51
2023/03/08 07:47:55;;;;;;;;;;;;;;;8.65;66.21;101806.72;4769028;30;19969;-52
2023/03/08 07:50:21;;;;;;;;;;;;;;;8.80;66.14;101805.03;4766120;30;20285;-50
2023/03/08 07:52:47;;;;;;;;;;;;;;;8.62;66.04;101799.91;4753475;30;20413;-51
2023/03/08 07:55:13;;;;;;;;;;;;;;;8.67;66.18;101808.25;4771562;30;19957;-51
2023/03/08 07:57:39;;;;;;;;;;;;;;;8.78;65.79;101809.72;4770693;30;19972;-51
2023/03/08 08:00:08;;;;;;;;;;;;;;;8.54;66.65;101801.75;4770724;30;19921;-52
2023/03/08 08:02:35;;;;;;;;;;;;;;;8.61;66.55;101803.59;4770363;30;20440;-51
2023/03/08 08:05:01;;;;;;;;;;;;;;;8.63;66.23;101808.75;4771519;30;19940;-51
2023/03/08 08:07:27;;;;;;;;;;;;;;;8.69;66.33;101814.22;4770034;30;19928;-51
2023/03/08 08:09:53;;;;;;;;;;;;;;;8.69;66.56;101805.41;4771142;30;19921;-51
2023/03/08 08:12:18;;;;;;;;;;;;;;;8.62;66.78;101797.25;4770119;30;19926;-50
2023/03/08 08:14:45;;;;;;;;;;;;;;;8.78;66.56;101796.38;4771114;30;20396;-51
2023/03/08 08:17:11;;;;;;;;;;;;;;;8.80;66.71;101789.00;4769776;30;20583;-52
2023/03/08 08:19:37;;;;;;;;;;;;;;;8.83;67.10;101783.34;4770903;30;19921;-52
2023/03/08 08:22:03;;;;;;;;;;;;;;;8.71;67.71;101782.03;4769873;30;19918;-50
2023/03/08 08:24:31;;;;;;;;;;;;;;;8.65;68.02;101788.88;4770899;30;19952;-50
2023/03/08 08:26:57;;;;;;;;;;;;;;;8.49;68.94;101788.06;4769877;30;20360;-51
2023/03/08 08:29:23;;;;;;;;;;;;;;;8.67;68.65;101786.06;4770920;30;19917;-52
2023/03/08 08:31:51;;;;;;;;;;;;;;;8.75;68.16;101779.84;4769160;30;20262;-51
2023/03/08 08:34:18;;;;;;;;;;;;;;;8.68;68.25;101785.88;4769468;30;19926;-50
2023/03/08 08:36:44;;;;;;;;;;;;;;;8.75;67.75;101782.53;4769776;30;19926;-52
2023/03/08 08:39:10;;;;;;;;;;;;;;;8.49;68.57;101780.91;4770435;30;20266;-52
2023/03/08 08:41:35;;;;;;;;;;;;;;;8.65;68.65;101785.38;4768715;30;20393;-50
2023/03/08 08:44:01;;;;;;;;;;;;;;;8.43;68.39;101786.91;4769756;30;19922;-51
2023/03/08 08:46:27;;;;;;;;;;;;;;;8.64;66.99;101781.88;4769485;30;19944;-50
2023/03/08 08:48:54;;;;;;;;;;;;;;;8.52;66.40;101779.75;4770567;30;19924;-48
2023/03/08 08:51:20;;;;;;;;;;;;;;;8.59;66.68;101773.53;4763142;30;19957;-50
2023/03/08 08:53:46;;;;;;;;;;;;;;;8.43;66.26;101770.91;4770446;30;20395;-51
2023/03/08 08:56:17;;;;;;;;;;;;;;;8.41;66.84;101768.41;4767601;30;20006;-51
2023/03/08 08:58:43;;;;;;;;;;;;;;;8.35;66.91;101776.22;4769161;30;20004;-49
2023/03/08 09:01:13;;;;;;;;;;;;;;;8.37;67.20;101771.59;4769387;30;19922;-50
2023/03/08 09:03:39;;;;;;;;;;;;;;;8.35;67.38;101769.06;4770432;30;19925;-50
2023/03/08 09:06:05;;;;;;;;;;;;;;;8.36;67.34;101767.25;4767821;30;19921;-51
2023/03/08 09:08:30;;;;;;;;;;;;;;;8.14;67.90;101766.91;4769928;30;19975;-48
2023/03/08 09:11:00;;;;;;;;;;;;;;;8.20;67.86;101768.06;4768949;30;20013;-48
2023/03/08 09:13:26;;;;;;;;;;;;;;;8.37;68.05;101761.75;4769009;30;20322;-51
2023/03/08 09:15:52;;;;;;;;;;;;;;;8.36;68.39;101762.75;4768136;30;19929;-49
2023/03/08 09:18:18;;;;;;;;;;;;;;;8.15;69.30;101752.56;4769718;30;19926;-48
2023/03/08 09:20:44;;;;;;;;;;;;;;;8.18;69.49;101764.75;4768888;30;19926;-50
2023/03/08 09:23:10;;;;;;;;;;;;;;;8.28;69.52;101745.91;4770085;30;19918;-49
2023/03/08 09:25:35;;;;;;;;;;;;;;;8.34;69.23;101746.06;4769007;30;19970;-48
2023/03/08 09:28:01;;;;;;;;;;;;;;;8.47;68.69;101737.56;4769557;30;20301;-48
2023/03/08 09:30:28;;;;;;;;;;;;;;;8.31;68.75;101734.88;4768662;30;20402;-50
2023/03/08 09:32:54;;;;;;;;;;;;;;;8.38;68.61;101735.91;4768723;30;19926;-48
2023/03/08 09:35:20;;;;;;;;;;;;;;;8.24;68.63;101724.06;4768456;30;19922;-49
2023/03/08 09:37:45;;;;;;;;;;;;;;;8.19;69.00;101729.06;4769503;30;20297;-51
2023/03/08 09:40:17;;;;;;;;;;;;;;;8.25;68.54;101730.22;4767968;30;19929;-51
2023/03/08 09:42:44;;;;;;;;;;;;;;;8.06;68.59;101726.09;4768586;30;20092;-49
2023/03/08 09:45:22;;;;;;;;;;;;;;;8.23;68.64;101717.06;4768560;30;19922;-51
2023/03/08 09:47:59;;;;;;;;;;;;;;;8.19;68.17;101713.06;4769099;30;19918;-51
2023/03/08 09:50:35;;;;;;;;;;;;;;;7.84;69.38;101719.59;4762666;30;19984;-50
2023/03/08 09:53:16;;;;;;;;;;;;;;;7.92;69.32;101712.41;4766615;30;20107;-51
2023/03/08 09:55:50;;;;;;;;;;;;;;;7.91;69.14;101708.09;4755083;30;19926;-52
2023/03/08 09:58:28;;;;;;;;;;;;;;;7.88;69.28;101704.91;4768953;30;19926;-48
2023/03/08 10:00:56;;;;;;;;;;;;;;;8.17;68.52;101707.91;4768248;30;19929;-51
2023/03/08 10:03:45;;;;;;;;;;;;;;;8.00;68.66;101706.28;4768455;30;19929;-51
2023/03/08 10:06:18;;;;;;;;;;;;;;;7.98;68.63;101696.75;4758454;30;19926;-52
2023/03/08 10:08:59;;;;;;;;;;;;;;;8.04;68.61;101688.09;4769065;30;19926;-51
2023/03/08 10:11:47;;;;;;;;;;;;;;;8.01;68.38;101686.59;4766409;30;19980;-51
2023/03/08 10:14:18;;;;;;;;;;;;;;;8.08;68.23;101679.59;4767969;30;19929;-51
2023/03/08 10:16:47;;;;;;;;;;;;;;;8.09;68.18;101683.91;4768981;30;19925;-51
2023/03/08 10:19:21;;;;;;;;;;;;;;;7.98;68.27;101676.25;4768025;30;19948;-49
2023/03/08 10:21:47;;;;;;;;;;;;;;;7.90;68.29;101673.63;4768869;30;19917;-51
2023/03/08 10:24:13;;;;;;;;;;;;;;;8.17;68.12;101667.06;4766868;30;19929;-49
2023/03/08 10:26:40;;;;;;;;;;;;;;;8.21;68.53;101663.88;4768535;30;19918;-49
2023/03/08 10:29:06;;;;;;;;;;;;;;;8.30;68.10;101663.88;4767947;30;19917;-50
2023/03/08 10:31:32;;;;;;;;;;;;;;;8.16;68.82;101663.59;4768974;30;19940;-50
2023/03/08 10:34:05;;;;;;;;;;;;;;;8.10;70.47;101671.41;4767910;30;19929;-48
2023/03/08 10:36:31;;;;;;;;;;;;;;;8.11;71.05;101676.59;4768961;30;19917;-48
2023/03/08 10:39:05;;;;;;;;;;;;;;;7.90;73.28;101679.78;4767574;30;19979;-49
2023/03/08 10:41:35;;;;;;;;;;;;;;;7.81;74.50;101666.63;4768899;30;19913;-47
2023/03/08 10:44:01;;;;;;;;;;;;;;;7.48;75.75;101665.78;4768046;30;20440;-47
2023/03/08 10:46:30;;;;;;;;;;;;;;;7.11;77.36;101673.22;4769025;30;20012;-50
2023/03/08 10:49:16;;;;;;;;;;;;;;;7.23;78.91;101683.56;4763254;30;19935;-47
2023/03/08 10:51:50;;;;;;;;;;;;;;;7.04;79.72;101677.50;4750670;30;20018;-47
2023/03/08 10:54:17;;;;;;;;;;;;;;;7.20;79.83;101684.72;4766320;30;19918;-49
2023/03/08 10:56:43;;;;;;;;;;;;;;;7.34;79.63;101680.59;4774312;24;19933;-50
2023/03/08 10:59:18;;;;;;;;;;;;;;;6.95;80.43;101677.69;4768865;30;19976;-50
2023/03/08 11:01:48;;;;;;;;;;;;;;;6.93;81.39;101683.13;4766387;30;19921;-48
2023/03/08 11:04:16;;;;;;;;;;;;;;;6.87;82.21;101678.47;4766692;30;19926;-49
2023/03/08 11:06:42;;;;;;;;;;;;;;;6.96;82.74;101672.19;4768726;30;19922;-52
2023/03/08 11:09:24;;;;;;;;;;;;;;;7.01;82.72;101667.22;4767757;30;20407;-48
2023/03/08 11:11:50;;;;;;;;;;;;;;;6.98;82.99;101674.66;4774628;30;19974;-48
2023/03/08 11:14:16;;;;;;;;;;;;;;;7.00;82.84;101668.22;4773391;30;19949;-51
2023/03/08 11:16:45;;;;;;;;;;;;;;;6.99;83.12;101668.34;4768393;30;20460;-47
2023/03/08 11:19:22;;;;;;;;;;;;;;;7.15;83.26;101658.56;4767647;30;20015;-49
2023/03/08 11:21:48;;;;;;;;;;;;;;;7.13;83.82;101652.59;4768414;30;20428;-51
2023/03/08 11:24:30;;;;;;;;;;;;;;;7.22;83.40;101648.13;4767571;30;19921;-49
2023/03/08 11:27:15;;;;;;;;;;;;;;;7.20;83.81;101646.59;4768216;30;19922;-51
2023/03/08 11:30:13;;;;;;;;;;;;;;;7.22;84.28;101640.13;4767342;30;19928;-51
2023/03/08 11:33:10;;;;;;;;;;;;;;;7.41;82.54;101637.13;4738385;30;19925;-50
2023/03/08 11:35:47;;;;;;;;;;;;;;;7.47;81.93;101632.97;4747327;30;19925;-51
2023/03/08 11:38:24;;;;;;;;;;;;;;;7.36;82.56;101636.81;4770424;30;19918;-51
2023/03/08 11:40:52;;;;;;;;;;;;;;;7.24;83.04;101634.63;4771000;30;19925;-51
2023/03/08 11:43:30;;;;;;;;;;;;;;;7.27;83.45;101637.78;4769841;30;19918;-48
2023/03/08 11:46:05;;;;;;;;;;;;;;;7.25;83.75;101636.28;4760809;30;20305;-52
2023/03/08 11:48:31;;;;;;;;;;;;;;;7.34;83.42;101636.16;4769521;30;19917;-50
2023/03/08 11:50:57;;;;;;;;;;;;;;;7.34;83.62;101632.66;4771402;30;20005;-48
2023/03/08 11:53:23;;;;;;;;;;;;;;;7.43;83.65;101626.31;4771121;30;19925;-48
2023/03/08 11:56:04;;;;;;;;;;;;;;;7.29;84.31;101634.97;4770004;30;20448;-49
2023/03/08 11:58:33;;;;;;;;;;;;;;;6.94;85.81;101633.41;4771020;30;20020;-48
2023/03/08 12:01:00;;;;;;;;;;;;;;;6.98;85.87;101624.94;4769318;30;20351;-47
2023/03/08 12:03:42;;;;;;;;;;;;;;;7.31;84.40;101630.31;4770968;30;19917;-49
2023/03/08 12:06:22;;;;;;;;;;;;;;;7.31;84.73;101639.13;4759581;30;20000;-46
2023/03/08 12:08:52;;;;;;;;;;;;;;;7.41;84.21;101642.47;4769936;30;19996;-47
2023/03/08 12:11:30;;;;;;;;;;;;;;;7.47;83.54;101659.63;4770951;30;20024;-50
2023/03/08 12:14:00;;;;;;;;;;;;;;;7.51;83.69;101668.94;4770302;30;20365;-48
2023/03/08 12:16:31;;;;;;;;;;;;;;;7.66;83.93;101648.66;4771151;30;20388;-51
2023/03/08 12:19:00;;;;;;;;;;;;;;;7.53;85.13;101642.97;4769920;30;19925;-48
2023/03/08 12:21:33;;;;;;;;;;;;;;;7.60;85.93;101635.97;4771035;30;19940;-48
2023/03/08 12:24:17;;;;;;;;;;;;;;;7.65;85.99;101651.47;4769746;30;20004;-50
2023/03/08 12:26:45;;;;;;;;;;;;;;;7.57;86.45;101644.31;4770206;30;19932;-48
2023/03/08 12:29:19;;;;;;;;;;;;;;;7.51;86.98;101641.47;4769818;30;19921;-50
2023/03/08 12:31:46;;;;;;;;;;;;;;;7.65;85.82;101641.63;4769743;30;19922;-48
2023/03/08 12:34:31;;;;;;;;;;;;;;;7.72;85.15;101643.63;4769797;30;19933;-49
2023/03/08 12:36:57;;;;;;;;;;;;;;;7.84;84.12;101647.63;4733919;30;20395;-48
2023/03/08 12:39:28;;;;;;;;;;;;;;;7.86;84.14;101641.13;4768804;30;19922;-48
2023/03/08 12:41:57;;;;;;;;;;;;;;;8.02;84.43;101645.59;4769727;30;20456;-49
2023/03/08 12:44:25;;;;;;;;;;;;;;;7.97;85.08;101650.59;4752722;30;20585;-51
2023/03/08 12:46:52;;;;;;;;;;;;;;;8.17;84.76;101653.75;4770232;30;19918;-48